createdAt,value
2023-01-11T00:01:25.546Z,100697.56
2023-01-11T00:03:52.291Z,100697.09
2023-01-11T00:06:19.046Z,100696.47
2023-01-11T00:08:46.070Z,100700.69
2023-01-11T00:11:12.802Z,100691.09
2023-01-11T00:13:39.571Z,100695.16
2023-01-11T00:16:06.378Z,100688.50
2023-01-11T00:18:33.225Z,100684.44
2023-01-11T00:21:00.865Z,100682.28
2023-01-11T00:23:27.603Z,100678.41
2023-01-11T00:25:54.344Z,100671.75
2023-01-11T00:28:21.072Z,100667.97
2023-01-11T00:30:47.887Z,100665.06
2023-01-11T00:33:14.669Z,100657.91
2023-01-11T00:35:41.408Z,100654.69
2023-01-11T00:38:08.170Z,100653.63
2023-01-11T00:40:34.919Z,100642.44
2023-01-11T00:43:20.348Z,100646.00
2023-01-11T00:46:05.580Z,100638.44
2023-01-11T00:48:32.379Z,100635.91
2023-01-11T00:50:59.444Z,100627.78
2023-01-11T00:53:26.194Z,100619.72
2023-01-11T00:55:52.975Z,100620.84
2023-01-11T00:58:19.702Z,100621.06
2023-01-11T01:00:46.491Z,100624.75
2023-01-11T01:03:13.244Z,100616.09
2023-01-11T01:05:40.069Z,100620.88
2023-01-11T01:08:07.219Z,100620.88
2023-01-11T01:10:33.998Z,100614.91
2023-01-11T01:13:19.622Z,100618.59
2023-01-11T01:15:46.447Z,100614.72
2023-01-11T01:18:13.293Z,100619.69
2023-01-11T01:20:40.085Z,100612.94
2023-01-11T01:23:06.870Z,100620.88
2023-01-11T01:25:33.600Z,100612.28
2023-01-11T01:28:00.423Z,100610.78
2023-01-11T01:30:27.262Z,100617.00
2023-01-11T01:32:54.012Z,100612.84
2023-01-11T01:35:20.793Z,100596.72
2023-01-11T01:37:47.565Z,100594.50
2023-01-11T01:40:14.373Z,100593.53
2023-01-11T01:42:41.128Z,100600.31
2023-01-11T01:45:07.923Z,100587.53
2023-01-11T01:47:34.725Z,100598.81
2023-01-11T01:50:01.583Z,100590.03
2023-01-11T01:52:29.377Z,100580.28
2023-01-11T01:54:56.162Z,100584.59
2023-01-11T01:57:22.927Z,100577.66
2023-01-11T01:59:51.580Z,100565.63
2023-01-11T02:02:18.349Z,100571.97
2023-01-11T02:04:45.093Z,100576.22
2023-01-11T02:07:11.863Z,100562.50
2023-01-11T02:09:38.587Z,100560.66
2023-01-11T02:12:05.315Z,100553.69
2023-01-11T02:14:32.378Z,100560.94
2023-01-11T02:16:59.097Z,100555.94
2023-01-11T02:19:25.845Z,100555.81
2023-01-11T02:21:52.639Z,100548.72
2023-01-11T02:24:19.383Z,100544.22
2023-01-11T02:26:46.459Z,100547.22
2023-01-11T02:29:13.916Z,100530.38
2023-01-11T02:31:40.708Z,100534.06
2023-01-11T02:34:07.527Z,100528.38
2023-01-11T02:36:34.333Z,100514.28
2023-01-11T02:39:01.074Z,100515.59
2023-01-11T02:41:28.120Z,100522.97
2023-01-11T02:44:13.466Z,100526.63
2023-01-11T02:46:40.233Z,100522.28
2023-01-11T02:49:06.983Z,100517.56
2023-01-11T02:51:33.728Z,100515.78
2023-01-11T02:54:00.462Z,100516.59
2023-01-11T02:56:27.198Z,100510.47
2023-01-11T02:58:54.038Z,100512.97
2023-01-11T03:01:22.533Z,100511.28
2023-01-11T03:03:49.361Z,100501.50
2023-01-11T03:06:16.118Z,100506.59
2023-01-11T03:08:44.589Z,100508.81
2023-01-11T03:11:11.646Z,100503.19
2023-01-11T03:13:38.406Z,100502.69
2023-01-11T03:16:05.646Z,100495.41
2023-01-11T03:18:32.406Z,100496.75
2023-01-11T03:20:59.155Z,100489.50
2023-01-11T03:23:25.893Z,100485.75
2023-01-11T03:25:52.621Z,100484.91
2023-01-11T03:28:19.374Z,100473.31
2023-01-11T03:30:46.120Z,100474.47
2023-01-11T03:33:12.875Z,100461.91
2023-01-11T03:35:39.651Z,100463.19
2023-01-11T03:38:06.385Z,100471.69
2023-01-11T03:40:33.137Z,100456.69
2023-01-11T03:43:12.207Z,100449.72
2023-01-11T03:45:38.961Z,100454.56
2023-01-11T03:48:05.708Z,100448.31
2023-01-11T03:50:32.498Z,100446.72
2023-01-11T03:52:59.251Z,100440.91
2023-01-11T03:55:26.569Z,100439.44
2023-01-11T03:57:53.385Z,100436.69
2023-01-11T04:00:20.145Z,100428.88
2023-01-11T04:02:46.994Z,100428.44
2023-01-11T04:05:13.757Z,100428.38
2023-01-11T04:07:40.567Z,100422.28
2023-01-11T04:10:07.306Z,100421.97
2023-01-11T04:12:34.072Z,100423.09
2023-01-11T04:15:03.017Z,100424.97
2023-01-11T04:17:29.801Z,100431.25
2023-01-11T04:19:56.554Z,100419.75
2023-01-11T04:22:23.281Z,100413.56
2023-01-11T04:24:50.003Z,100412.97
2023-01-11T04:27:16.745Z,100416.25
2023-01-11T04:29:43.474Z,100407.00
2023-01-11T04:32:10.246Z,100392.03
2023-01-11T04:34:36.992Z,100392.88
2023-01-11T04:37:03.758Z,100399.34
2023-01-11T04:39:30.488Z,100404.50
2023-01-11T04:42:15.729Z,100404.06
2023-01-11T04:44:42.457Z,100393.03
2023-01-11T04:47:09.216Z,100403.44
2023-01-11T04:49:35.990Z,100398.44
2023-01-11T04:52:02.722Z,100395.66
2023-01-11T04:54:29.496Z,100393.84
2023-01-11T04:56:56.266Z,100399.38
2023-01-11T04:59:23.115Z,100391.50
2023-01-11T05:01:49.891Z,100400.91
2023-01-11T05:04:16.724Z,100384.03
2023-01-11T05:06:43.621Z,100381.75
2023-01-11T05:09:10.403Z,100372.72
2023-01-11T05:11:37.164Z,100368.19
2023-01-11T05:14:03.931Z,100368.72
2023-01-11T05:16:30.728Z,100365.09
2023-01-11T05:18:57.553Z,100363.06
2023-01-11T05:21:24.330Z,100363.06
2023-01-11T05:23:51.069Z,100361.13
2023-01-11T05:26:18.127Z,100346.91
2023-01-11T05:28:44.875Z,100341.34
2023-01-11T05:31:11.656Z,100344.13
2023-01-11T05:33:38.482Z,100355.50
2023-01-11T05:36:05.241Z,100350.75
2023-01-11T05:38:33.045Z,100338.94
2023-01-11T05:40:59.785Z,100352.41
2023-01-11T05:43:26.572Z,100351.41
2023-01-11T05:45:53.521Z,100351.47
2023-01-11T05:48:20.292Z,100353.06
2023-01-11T05:50:47.027Z,100355.28
2023-01-11T05:53:13.844Z,100350.75
2023-01-11T05:55:40.594Z,100352.75
2023-01-11T05:58:07.333Z,100341.88
2023-01-11T06:00:34.111Z,100342.41
2023-01-11T06:03:01.510Z,100347.25
2023-01-11T06:05:28.273Z,100342.16
2023-01-11T06:07:55.048Z,100343.09
2023-01-11T06:10:21.810Z,100341.34
2023-01-11T06:12:48.552Z,100336.91
2023-01-11T06:15:15.286Z,100326.44
2023-01-11T06:17:42.039Z,100324.25
2023-01-11T06:20:08.796Z,100323.34
2023-01-11T06:22:35.759Z,100320.94
2023-01-11T06:25:02.507Z,100316.47
2023-01-11T06:27:29.255Z,100318.63
2023-01-11T06:29:56.010Z,100312.53
2023-01-11T06:32:22.880Z,100307.88
2023-01-11T06:34:49.629Z,100312.25
2023-01-11T06:37:16.361Z,100308.16
2023-01-11T06:39:43.112Z,100306.25
2023-01-11T06:42:09.861Z,100305.38
2023-01-11T06:44:36.686Z,100303.09
2023-01-11T06:47:03.479Z,100311.22
2023-01-11T06:49:30.216Z,100319.47
2023-01-11T06:51:56.946Z,100316.78
2023-01-11T06:54:25.492Z,100313.66
2023-01-11T06:56:52.249Z,100323.44
2023-01-11T06:59:19.035Z,100311.50
2023-01-11T07:01:46.127Z,100304.22
2023-01-11T07:04:13.176Z,100309.22
2023-01-11T07:06:39.930Z,100316.50
2023-01-11T07:09:06.734Z,100314.53
2023-01-11T07:11:34.718Z,100304.22
2023-01-11T07:14:01.496Z,100309.53
2023-01-11T07:16:28.313Z,100310.41
2023-01-11T07:18:55.069Z,100305.41
2023-01-11T07:21:21.828Z,100311.75
2023-01-11T07:23:48.875Z,100303.66
2023-01-11T07:26:17.098Z,100302.06
2023-01-11T07:28:44.011Z,100303.66
2023-01-11T07:31:10.841Z,100298.66
2023-01-11T07:33:37.680Z,100301.50
2023-01-11T07:36:06.228Z,100303.72
2023-01-11T07:38:33.105Z,100298.66
2023-01-11T07:40:59.837Z,100307.56
2023-01-11T07:43:26.829Z,100310.16
2023-01-11T07:45:53.971Z,100304.75
2023-01-11T07:48:21.190Z,100310.38
2023-01-11T07:50:48.451Z,100298.97
2023-01-11T07:53:15.264Z,100299.63
2023-01-11T07:55:42.024Z,100304.28
2023-01-11T07:58:08.800Z,100302.09
2023-01-11T08:00:35.559Z,100299.84
2023-01-11T08:03:03.000Z,100302.63
2023-01-11T08:05:29.864Z,100307.63
2023-01-11T08:07:56.636Z,100308.19
2023-01-11T08:10:23.391Z,100313.72
2023-01-11T08:13:08.863Z,100310.94
2023-01-11T08:15:42.096Z,100301.78
2023-01-11T08:18:08.847Z,100306.72
2023-01-11T08:20:35.585Z,100314.00
2023-01-11T08:23:02.360Z,100309.84
2023-01-11T08:25:29.098Z,100310.97
2023-01-11T08:27:55.871Z,100312.63
2023-01-11T08:30:22.626Z,100308.69
2023-01-11T08:32:49.439Z,100316.50
2023-01-11T08:35:16.186Z,100313.19
2023-01-11T08:37:42.931Z,100317.34
2023-01-11T08:40:09.680Z,100318.22
2023-01-11T08:42:36.466Z,100328.72
2023-01-11T08:45:03.275Z,100332.00
2023-01-11T08:47:30.073Z,100324.25
2023-01-11T08:49:56.859Z,100320.94
2023-01-11T08:52:23.666Z,100322.00
2023-01-11T08:54:50.584Z,100325.31
2023-01-11T08:57:17.327Z,100317.03
2023-01-11T08:59:44.075Z,100318.75
2023-01-11T09:02:10.870Z,100315.44
2023-01-11T09:04:37.642Z,100317.63
2023-01-11T09:07:04.442Z,100315.97
2023-01-11T09:09:31.754Z,100324.00
2023-01-11T09:12:00.671Z,100316.50
2023-01-11T09:14:27.545Z,100316.50
2023-01-11T09:16:54.371Z,100315.34
2023-01-11T09:19:21.170Z,100310.41
2023-01-11T09:21:47.942Z,100315.13
2023-01-11T09:24:14.712Z,100308.16
2023-01-11T09:26:43.338Z,100309.31
2023-01-11T09:29:10.433Z,100317.88
2023-01-11T09:31:37.347Z,100312.09
2023-01-11T09:34:04.827Z,100307.09
2023-01-11T09:36:32.966Z,100301.84
2023-01-11T09:39:02.037Z,100310.69
2023-01-11T09:41:28.800Z,100307.34
2023-01-11T09:43:55.651Z,100311.75
2023-01-11T09:46:22.776Z,100298.78
2023-01-11T09:48:49.553Z,100308.75
2023-01-11T09:51:18.990Z,100302.69
2023-01-11T09:53:49.254Z,100296.00
2023-01-11T09:56:16.227Z,100293.25
2023-01-11T09:58:43.122Z,100291.03
2023-01-11T10:01:10.720Z,100288.78
2023-01-11T10:03:37.891Z,100288.78
2023-01-11T10:06:06.008Z,100293.84
2023-01-11T10:18:22.461Z,100285.50
2023-01-11T10:18:42.793Z,100282.16
2023-01-11T10:19:49.116Z,100275.75
2023-01-11T10:22:16.330Z,100278.28
2023-01-11T10:24:43.149Z,100278.84
2023-01-11T10:27:10.613Z,100273.00
2023-01-11T10:30:03.769Z,100273.28
2023-01-11T10:32:49.375Z,100265.03
2023-01-11T10:35:45.442Z,100259.69
2023-01-11T10:38:30.619Z,100264.16
2023-01-11T10:41:04.629Z,100261.38
2023-01-11T10:43:31.392Z,100253.31
2023-01-11T10:45:58.274Z,100245.84
2023-01-11T10:48:26.630Z,100246.13
2023-01-11T10:50:53.885Z,100245.56
2023-01-11T10:53:20.669Z,100243.31
2023-01-11T10:55:47.411Z,100257.22
2023-01-11T10:58:14.176Z,100249.97
2023-01-11T11:00:41.807Z,100248.59
2023-01-11T11:03:08.601Z,100242.22
2023-01-11T11:05:35.355Z,100249.19
2023-01-11T11:08:02.327Z,100247.78
2023-01-11T11:10:29.083Z,100247.78
2023-01-11T11:12:55.843Z,100234.75
2023-01-11T11:15:23.472Z,100241.41
2023-01-11T11:17:50.291Z,100237.53
2023-01-11T11:20:17.051Z,100231.19
2023-01-11T11:22:45.005Z,100234.25
2023-01-11T11:25:11.737Z,100231.75
2023-01-11T11:27:38.484Z,100233.09
2023-01-11T11:30:05.348Z,100227.88
2023-01-11T11:32:32.112Z,100225.03
2023-01-11T11:34:58.886Z,100224.78
2023-01-11T11:37:25.667Z,100222.28
2023-01-11T11:39:52.539Z,100219.53
2023-01-11T11:42:21.128Z,100217.59
2023-01-11T11:44:47.869Z,100213.16
2023-01-11T11:47:14.742Z,100215.38
2023-01-11T11:49:42.125Z,100217.88
2023-01-11T11:52:09.311Z,100224.53
2023-01-11T11:54:36.074Z,100220.38
2023-01-11T11:57:02.827Z,100228.41
2023-01-11T11:59:29.655Z,100232.56
2023-01-11T12:01:56.436Z,100226.22
2023-01-11T12:04:23.320Z,100225.63
2023-01-11T12:06:50.159Z,100218.44
2023-01-11T12:09:16.902Z,100219.50
2023-01-11T12:11:43.668Z,100213.44
2023-01-11T12:14:10.396Z,100208.97
2023-01-11T12:16:37.161Z,100220.09
2023-01-11T12:19:04.028Z,100213.69
2023-01-11T12:21:30.776Z,100217.34
2023-01-11T12:23:57.501Z,100203.47
2023-01-11T12:26:24.255Z,100202.88
2023-01-11T12:28:51.025Z,100196.25
2023-01-11T12:31:17.787Z,100193.19
2023-01-11T12:33:44.659Z,100200.69
2023-01-11T12:36:11.409Z,100200.97
2023-01-11T12:38:38.177Z,100206.22
2023-01-11T12:41:05.670Z,100214.53
2023-01-11T12:43:35.259Z,100216.75
2023-01-11T12:46:02.108Z,100219.53
2023-01-11T12:48:28.980Z,100216.75
2023-01-11T12:50:55.706Z,100209.28
2023-01-11T12:53:22.442Z,100205.13
2023-01-11T12:55:49.205Z,100204.84
2023-01-11T12:58:15.980Z,100196.25
2023-01-11T13:00:42.880Z,100200.69
2023-01-11T13:03:09.637Z,100192.63
2023-01-11T13:05:36.389Z,100186.25
2023-01-11T13:08:03.124Z,100195.13
2023-01-11T13:10:29.878Z,100197.34
2023-01-11T13:12:56.650Z,100196.25
2023-01-11T13:15:23.454Z,100193.47
2023-01-11T13:17:50.197Z,100201.25
2023-01-11T13:20:16.951Z,100211.22
2023-01-11T13:22:43.696Z,100199.28
2023-01-11T13:25:10.492Z,100202.63
2023-01-11T13:27:37.415Z,100207.88
2023-01-11T13:30:04.197Z,100205.66
2023-01-11T13:32:31.006Z,100206.50
2023-01-11T13:34:57.768Z,100208.44
2023-01-11T13:37:24.490Z,100209.00
2023-01-11T13:39:51.249Z,100218.44
2023-01-11T13:42:18.065Z,100224.53
2023-01-11T13:44:44.802Z,100220.94
2023-01-11T13:47:11.560Z,100229.81
2023-01-11T13:49:38.300Z,100232.84
2023-01-11T13:52:05.058Z,100226.75
2023-01-11T13:54:31.853Z,100232.28
2023-01-11T13:56:58.595Z,100228.41
2023-01-11T13:59:25.336Z,100232.28
2023-01-11T14:01:53.605Z,100233.69
2023-01-11T14:04:22.263Z,100234.78
2023-01-11T14:06:51.314Z,100236.47
2023-01-11T14:09:18.091Z,100241.19
2023-01-11T14:11:45.143Z,100240.59
2023-01-11T14:14:15.581Z,100240.59
2023-01-11T14:16:42.398Z,100245.06
2023-01-11T14:19:09.131Z,100245.59
2023-01-11T14:21:35.870Z,100248.69
2023-01-11T14:24:02.666Z,100251.41
2023-01-11T14:26:29.390Z,100254.47
2023-01-11T14:28:56.151Z,100263.91
2023-01-11T14:31:23.112Z,100263.31
2023-01-11T14:33:49.928Z,100269.75
2023-01-11T14:36:16.680Z,100278.88
2023-01-11T14:38:43.467Z,100280.56
2023-01-11T14:41:10.221Z,100286.09
2023-01-11T14:43:36.952Z,100298.28
2023-01-11T14:46:03.741Z,100296.59
2023-01-11T14:48:30.564Z,100298.84
2023-01-11T14:50:57.344Z,100300.25
2023-01-11T14:53:24.086Z,100295.00
2023-01-11T14:55:50.856Z,100291.63
2023-01-11T14:58:18.165Z,100295.50
2023-01-11T15:00:44.955Z,100296.34
2023-01-11T15:03:11.708Z,100293.31
2023-01-11T15:05:38.693Z,100299.94
2023-01-11T15:08:05.567Z,100301.06
2023-01-11T15:10:32.754Z,100301.06
2023-01-11T15:12:59.509Z,100301.59
2023-01-11T15:15:46.237Z,100305.75
2023-01-11T15:18:18.898Z,100306.88
2023-01-11T15:20:45.634Z,100314.13
2023-01-11T15:23:12.383Z,100318.53
2023-01-11T15:25:39.109Z,100313.78
2023-01-11T15:28:05.850Z,100326.03
2023-01-11T15:30:34.481Z,100335.66
2023-01-11T15:33:01.213Z,100335.44
2023-01-11T15:35:27.959Z,100339.31
2023-01-11T15:37:54.750Z,100337.13
2023-01-11T15:40:21.587Z,100337.09
2023-01-11T15:42:48.346Z,100339.59
2023-01-11T15:45:15.089Z,100354.84
2023-01-11T15:47:41.830Z,100356.56
2023-01-11T15:50:08.587Z,100360.09
2023-01-11T15:52:35.335Z,100375.97
2023-01-11T15:55:02.124Z,100378.69
2023-01-11T15:57:28.861Z,100377.03
2023-01-11T15:59:55.610Z,100383.97
2023-01-11T16:02:22.344Z,100385.88
2023-01-11T16:04:49.131Z,100391.41
2023-01-11T16:07:16.004Z,100391.09
2023-01-11T16:09:42.771Z,100391.97
2023-01-11T16:12:09.521Z,100395.91
2023-01-11T16:14:38.005Z,100398.38
2023-01-11T16:17:06.415Z,100404.19
2023-01-11T16:19:33.180Z,100411.44
2023-01-11T16:22:02.219Z,100400.38
2023-01-11T16:24:29.431Z,100402.00
2023-01-11T16:26:56.424Z,100403.38
2023-01-11T16:29:23.233Z,100417.53
2023-01-11T16:31:50.009Z,100415.84
2023-01-11T16:34:16.775Z,100420.56
2023-01-11T16:36:48.732Z,100423.84
2023-01-11T16:39:15.499Z,100423.63
2023-01-11T16:41:42.476Z,100426.41
2023-01-11T16:44:09.425Z,100437.81
2023-01-11T16:46:36.149Z,100439.66
2023-01-11T16:49:02.958Z,100440.84
2023-01-11T16:51:29.711Z,100439.16
2023-01-11T16:53:57.790Z,100443.59
2023-01-11T16:56:24.798Z,100434.97
2023-01-11T16:58:51.539Z,100450.16
2023-01-11T17:01:18.388Z,100462.41
2023-01-11T17:03:45.214Z,100463.47
2023-01-11T17:06:11.958Z,100468.47
2023-01-11T17:08:38.690Z,100476.53
2023-01-11T17:11:05.431Z,100469.94
2023-01-11T17:13:50.781Z,100472.41
2023-01-11T17:16:17.562Z,100464.03
2023-01-11T17:18:44.346Z,100482.06
2023-01-11T17:21:11.087Z,100478.19
2023-01-11T17:23:37.818Z,100484.84
2023-01-11T17:26:05.086Z,100485.66
2023-01-11T17:28:33.594Z,100492.38
2023-01-11T17:31:01.012Z,100490.03
2023-01-11T17:33:27.797Z,100490.91
2023-01-11T17:35:54.619Z,100495.19
2023-01-11T17:38:21.371Z,100494.56
2023-01-11T17:40:48.130Z,100495.41
2023-01-11T17:43:33.471Z,100494.03
2023-01-11T17:46:01.903Z,100495.16
2023-01-11T17:48:28.742Z,100490.63
2023-01-11T17:50:56.634Z,100490.63
2023-01-11T17:53:24.080Z,100494.03
2023-01-11T17:55:51.720Z,100497.31
2023-01-11T17:58:19.758Z,100506.69
2023-01-11T18:00:46.843Z,100512.84
2023-01-11T18:03:18.439Z,100518.69
2023-01-11T18:05:45.317Z,100526.59
2023-01-11T18:08:12.104Z,100530.78
2023-01-11T18:10:38.912Z,100537.25
2023-01-11T18:13:05.726Z,100534.81
2023-01-11T18:15:32.462Z,100535.31
2023-01-11T18:17:59.246Z,100535.50
2023-01-11T18:20:25.991Z,100541.00
2023-01-11T18:22:53.191Z,100543.84
2023-01-11T18:25:20.006Z,100537.22
2023-01-11T18:27:46.918Z,100541.94
2023-01-11T18:30:13.670Z,100548.88
2023-01-11T18:32:40.562Z,100549.28
2023-01-11T18:35:07.299Z,100560.03
2023-01-11T18:37:34.177Z,100554.63
2023-01-11T18:40:01.387Z,100563.22
2023-01-11T18:42:28.147Z,100563.31
2023-01-11T18:44:54.907Z,100573.50
2023-01-11T18:47:21.727Z,100577.13
2023-01-11T18:49:48.471Z,100586.16
2023-01-11T18:52:15.285Z,100576.00
2023-01-11T18:54:42.068Z,100577.69
2023-01-11T18:57:08.854Z,100578.41
2023-01-11T18:59:35.588Z,100584.31
2023-01-11T19:02:16.203Z,100578.28
2023-01-11T19:04:44.008Z,100582.06
2023-01-11T19:07:10.821Z,100582.13
2023-01-11T19:09:37.565Z,100582.66
2023-01-11T19:12:04.371Z,100580.69
2023-01-11T19:14:31.100Z,100589.59
2023-01-11T19:16:57.844Z,100592.09
2023-01-11T19:19:24.596Z,100592.06
2023-01-11T19:21:51.340Z,100596.19
2023-01-11T19:24:18.079Z,100603.31
2023-01-11T19:26:44.852Z,100617.63
2023-01-11T19:29:16.346Z,100619.91
2023-01-11T19:31:43.078Z,100618.13
2023-01-11T19:34:09.931Z,100621.16
2023-01-11T19:36:36.704Z,100617.31
2023-01-11T19:39:03.422Z,100625.28
2023-01-11T19:41:50.155Z,100623.06
2023-01-11T19:44:17.036Z,100618.63
2023-01-11T19:46:43.837Z,100611.78
2023-01-11T19:49:10.750Z,100607.88
2023-01-11T19:51:37.483Z,100614.66
2023-01-11T19:54:04.219Z,100613.38
2023-01-11T19:56:30.986Z,100619.16
2023-01-11T19:58:57.711Z,100620.84
2023-01-11T20:01:24.502Z,100611.94
2023-01-11T20:03:51.315Z,100615.41
2023-01-11T20:06:18.055Z,100619.28
2023-01-11T20:08:45.076Z,100617.31
2023-01-11T20:11:11.826Z,100620.63
2023-01-11T20:13:38.569Z,100614.22
2023-01-11T20:16:05.504Z,100618.88
2023-01-11T20:18:32.371Z,100616.38
2023-01-11T20:20:59.113Z,100614.81
2023-01-11T20:23:26.325Z,100623.47
2023-01-11T20:25:53.076Z,100621.38
2023-01-11T20:28:20.230Z,100618.78
2023-01-11T20:30:47.026Z,100625.06
2023-01-11T20:33:13.935Z,100628.13
2023-01-11T20:35:40.706Z,100618.75
2023-01-11T20:38:07.459Z,100623.72
2023-01-11T20:40:34.199Z,100615.34
2023-01-11T20:43:00.929Z,100621.63
2023-01-11T20:45:29.067Z,100620.66
2023-01-11T20:47:55.816Z,100610.28
2023-01-11T20:50:22.580Z,100616.47
2023-01-11T20:52:49.465Z,100610.47
2023-01-11T20:55:16.232Z,100613.16
2023-01-11T20:57:42.982Z,100612.53
2023-01-11T21:02:36.469Z,100612.31
2023-01-11T21:05:06.105Z,100613.66
2023-01-11T21:07:32.892Z,100604.25
2023-01-11T21:09:59.734Z,100601.44
2023-01-11T21:12:26.473Z,100599.75
2023-01-11T21:14:53.257Z,100606.13
2023-01-11T21:17:20.915Z,100604.25
2023-01-11T21:19:47.679Z,100598.44
2023-01-11T21:22:14.423Z,100601.84
2023-01-11T21:24:41.239Z,100602.78
2023-01-11T21:27:08.081Z,100596.09
2023-01-11T21:29:34.820Z,100606.97
2023-01-11T21:32:01.561Z,100603.09
2023-01-11T21:34:28.369Z,100601.31
2023-01-11T21:36:55.103Z,100602.97
2023-01-11T21:39:21.919Z,100601.53
2023-01-11T21:41:54.929Z,100600.38
2023-01-11T21:44:21.709Z,100586.94
2023-01-11T21:46:48.502Z,100570.44
2023-01-11T21:49:15.271Z,100578.47
2023-01-11T21:51:42.089Z,100582.13
2023-01-11T21:54:08.897Z,100581.34
2023-01-11T21:56:35.653Z,100575.94
2023-01-11T21:59:02.582Z,100567.34
2023-01-11T22:01:29.346Z,100568.47
2023-01-11T22:03:56.204Z,100566.41
2023-01-11T22:06:22.976Z,100569.84
2023-01-11T22:08:49.871Z,100576.31
2023-01-11T22:11:16.638Z,100572.56
2023-01-11T22:13:43.368Z,100573.13
2023-01-11T22:16:10.128Z,100573.59
2023-01-11T22:18:37.014Z,100575.78
2023-01-11T22:21:03.733Z,100570.06
2023-01-11T22:23:30.512Z,100575.25
2023-01-11T22:25:57.267Z,100575.38
2023-01-11T22:28:24.008Z,100576.44
2023-01-11T22:30:50.792Z,100591.16
2023-01-11T22:33:17.514Z,100583.75
2023-01-11T22:35:44.256Z,100578.19
2023-01-11T22:38:11.158Z,100578.03
2023-01-11T22:40:37.895Z,100577.28
2023-01-11T22:43:04.622Z,100578.28
2023-01-11T22:45:31.442Z,100577.63
2023-01-11T22:47:58.991Z,100591.28
2023-01-11T22:50:25.776Z,100586.94
2023-01-11T22:52:52.695Z,100580.41
2023-01-11T22:55:19.488Z,100584.59
2023-01-11T22:57:46.263Z,100595.56
2023-01-11T23:00:13.008Z,100589.19
2023-01-11T23:02:39.763Z,100598.63
2023-01-11T23:05:06.582Z,100601.53
2023-01-11T23:07:33.322Z,100595.34
2023-01-11T23:10:00.069Z,100592.94
2023-01-11T23:12:45.693Z,100592.22
2023-01-11T23:15:12.429Z,100587.72
2023-01-11T23:17:39.141Z,100575.47
2023-01-11T23:20:05.901Z,100569.56
2023-01-11T23:22:32.640Z,100563.16
2023-01-11T23:24:59.376Z,100555.81
2023-01-11T23:27:26.137Z,100558.75
2023-01-11T23:29:52.885Z,100558.59
2023-01-11T23:32:19.628Z,100551.97
2023-01-11T23:34:46.393Z,100544.78
2023-01-11T23:37:13.121Z,100546.84
2023-01-11T23:39:39.850Z,100543.06
2023-01-11T23:42:25.119Z,100550.38
2023-01-11T23:44:51.862Z,100548.38
2023-01-11T23:47:21.670Z,100551.22
2023-01-11T23:49:49.355Z,100547.09
2023-01-11T23:52:16.083Z,100548.81
2023-01-11T23:54:43.345Z,100545.47
2023-01-11T23:57:12.061Z,100533.69
2023-01-11T23:59:38.799Z,100528.53
